Time;durP1;ratioP1;P1;durP2;ratioP2;P2;SDS_P1;SDS_P2;PMS_P1;PMS_P2;Temp;Humidity;BMP_temperature;BMP_pressure;BME280_temperature;BME280_humidity;BME280_pressure;Samples;Min_cycle;Max_cycle;Signal;HPM_P1;HPM_P2
2022/03/18 00:01:53;;;;;;;15.10;8.98;;;;;;;;;;4982915;28;20272;-84
2022/03/18 00:04:19;;;;;;;16.70;11.15;;;;;;;;;;4984960;28;20188;-86
2022/03/18 00:06:45;;;;;;;22.00;11.73;;;;;;;;;;4984223;28;20184;-83
2022/03/18 00:09:11;;;;;;;12.48;10.30;;;;;;;;;;4984819;28;20204;-84
2022/03/18 00:11:37;;;;;;;13.50;8.55;;;;;;;;;;4985011;28;20588;-85
2022/03/18 00:14:03;;;;;;;8.75;7.00;;;;;;;;;;4983812;28;20183;-85
2022/03/18 00:16:29;;;;;;;10.10;5.78;;;;;;;;;;4985922;28;20172;-85
2022/03/18 00:18:56;;;;;;;13.00;7.05;;;;;;;;;;4980854;28;20188;-85
2022/03/18 00:21:23;;;;;;;8.18;6.38;;;;;;;;;;4989056;28;20192;-85
2022/03/18 00:23:49;;;;;;;7.57;6.68;;;;;;;;;;4990682;28;20278;-85
2022/03/18 00:26:15;;;;;;;7.25;5.72;;;;;;;;;;4984040;28;20709;-86
2022/03/18 00:28:41;;;;;;;6.78;6.07;;;;;;;;;;4998163;28;20193;-85
2022/03/18 00:31:08;;;;;;;12.82;6.75;;;;;;;;;;4986037;28;20587;-84
2022/03/18 00:33:34;;;;;;;9.93;6.18;;;;;;;;;;4984963;28;20176;-84
2022/03/18 00:36:01;;;;;;;12.90;6.20;;;;;;;;;;4982229;28;20191;-85
2022/03/18 00:38:27;;;;;;;12.63;7.15;;;;;;;;;;4972951;28;20218;-84
2022/03/18 00:40:56;;;;;;;12.90;5.90;;;;;;;;;;4999527;28;20203;-84
2022/03/18 00:43:22;;;;;;;7.30;5.45;;;;;;;;;;4984936;28;20701;-84
2022/03/18 00:45:48;;;;;;;10.90;7.15;;;;;;;;;;4984256;28;20184;-84
2022/03/18 00:53:44;;;;;;;6.57;5.68;;;;;;;;;;4984287;28;20191;-84
2022/03/18 00:56:10;;;;;;;6.82;5.97;;;;;;;;;;4984818;28;20195;-84
2022/03/18 00:58:37;;;;;;;6.68;5.13;;;;;;;;;;4985555;28;20167;-84
2022/03/18 01:01:03;;;;;;;5.95;4.93;;;;;;;;;;4985070;28;20532;-85
2022/03/18 01:03:29;;;;;;;5.22;4.60;;;;;;;;;;4979440;28;20658;-85
2022/03/18 01:05:55;;;;;;;5.55;5.05;;;;;;;;;;4978747;28;20213;-85
2022/03/18 01:08:21;;;;;;;7.53;4.72;;;;;;;;;;4970327;28;20270;-85
2022/03/18 01:10:47;;;;;;;6.40;4.45;;;;;;;;;;4984552;28;20728;-84
2022/03/18 01:13:13;;;;;;;6.28;4.43;;;;;;;;;;4985552;28;20203;-85
2022/03/18 01:15:39;;;;;;;9.00;4.85;;;;;;;;;;4981611;28;20175;-85
2022/03/18 01:18:05;;;;;;;8.20;5.40;;;;;;;;;;4984498;28;20211;-84
2022/03/18 01:20:32;;;;;;;7.00;4.35;;;;;;;;;;4983162;28;20222;-85
2022/03/18 01:23:00;;;;;;;7.63;4.90;;;;;;;;;;4984360;28;20200;-85
2022/03/18 01:25:26;;;;;;;8.48;5.43;;;;;;;;;;4983385;28;20176;-85
2022/03/18 01:27:52;;;;;;;7.60;4.75;;;;;;;;;;4984215;28;20192;-84
2022/03/18 01:30:18;;;;;;;5.47;4.78;;;;;;;;;;4984015;28;20210;-84
2022/03/18 01:32:44;;;;;;;8.43;4.00;;;;;;;;;;4982983;28;20184;-85
2022/03/18 01:35:10;;;;;;;8.20;5.35;;;;;;;;;;4982390;28;20188;-85
2022/03/18 01:37:36;;;;;;;6.68;4.55;;;;;;;;;;4970445;28;20203;-84
2022/03/18 01:40:02;;;;;;;7.05;4.65;;;;;;;;;;4984718;28;20179;-85
2022/03/18 01:42:28;;;;;;;6.57;4.63;;;;;;;;;;4983619;28;20243;-85
2022/03/18 01:44:54;;;;;;;7.30;5.20;;;;;;;;;;4983072;28;20192;-85
2022/03/18 01:47:20;;;;;;;7.53;4.80;;;;;;;;;;4982410;28;20184;-85
2022/03/18 01:49:46;;;;;;;4.35;3.88;;;;;;;;;;4997309;28;20810;-84
2022/03/18 01:52:12;;;;;;;4.63;3.28;;;;;;;;;;4984969;28;20183;-85
2022/03/18 01:54:45;;;;;;;4.47;4.07;;;;;;;;;;4983777;28;20191;-85
2022/03/18 01:57:11;;;;;;;5.63;3.95;;;;;;;;;;4979775;28;20725;-85
2022/03/18 01:59:38;;;;;;;8.73;3.85;;;;;;;;;;4979480;28;20184;-84
2022/03/18 02:02:04;;;;;;;5.95;4.10;;;;;;;;;;4984136;28;20251;-84
2022/03/18 02:04:32;;;;;;;8.23;5.05;;;;;;;;;;4984311;28;20179;-84
2022/03/18 02:06:59;;;;;;;7.00;4.50;;;;;;;;;;4971782;28;20188;-85
2022/03/18 02:09:26;;;;;;;9.35;4.68;;;;;;;;;;4979688;28;20208;-85
2022/03/18 02:11:52;;;;;;;5.43;3.58;;;;;;;;;;4981252;28;20228;-85
2022/03/18 02:14:30;;;;;;;6.80;4.18;;;;;;;;;;4982993;28;20196;-84
2022/03/18 02:16:56;;;;;;;5.32;4.05;;;;;;;;;;4983416;28;20187;-85
2022/03/18 02:19:22;;;;;;;4.38;3.85;;;;;;;;;;4983476;28;20175;-84
2022/03/18 02:21:48;;;;;;;4.20;3.70;;;;;;;;;;4979235;28;20272;-85
2022/03/18 02:24:14;;;;;;;4.80;3.45;;;;;;;;;;4987614;28;20654;-84
2022/03/18 02:26:41;;;;;;;5.78;3.78;;;;;;;;;;4987971;28;20219;-85
2022/03/18 02:29:07;;;;;;;5.70;4.60;;;;;;;;;;4983125;28;20200;-84
2022/03/18 02:31:33;;;;;;;4.60;4.10;;;;;;;;;;4984928;28;20172;-84
2022/03/18 02:33:59;;;;;;;4.53;3.38;;;;;;;;;;4983965;28;20198;-85
2022/03/18 02:36:25;;;;;;;8.57;4.80;;;;;;;;;;4984818;28;20180;-86
2022/03/18 02:38:51;;;;;;;6.13;4.32;;;;;;;;;;4978383;28;20196;-86
2022/03/18 02:41:17;;;;;;;5.22;4.00;;;;;;;;;;4987487;28;20192;-84
2022/03/18 02:43:43;;;;;;;4.70;3.80;;;;;;;;;;5000134;28;20188;-84
2022/03/18 02:46:09;;;;;;;5.03;3.83;;;;;;;;;;4986990;28;20218;-85
2022/03/18 02:48:35;;;;;;;6.53;4.25;;;;;;;;;;4982227;28;20236;-84
2022/03/18 02:51:01;;;;;;;5.10;3.33;;;;;;;;;;4998132;28;20207;-84
2022/03/18 02:53:27;;;;;;;9.00;4.07;;;;;;;;;;4985857;28;20187;-85
2022/03/18 02:55:54;;;;;;;6.90;4.18;;;;;;;;;;4986204;28;20239;-85
2022/03/18 02:58:20;;;;;;;5.63;3.17;;;;;;;;;;4983137;28;20196;-85
2022/03/18 03:00:46;;;;;;;7.45;4.32;;;;;;;;;;4985208;28;20188;-85
2022/03/18 03:03:12;;;;;;;4.57;3.80;;;;;;;;;;4982987;28;20215;-84
2022/03/18 03:08:22;;;;;;;6.50;5.05;;;;;;;;;;4987280;28;20276;-84
2022/03/18 03:10:48;;;;;;;7.63;4.25;;;;;;;;;;4986157;28;20223;-85
2022/03/18 03:13:14;;;;;;;6.60;4.18;;;;;;;;;;4987833;28;20199;-83
2022/03/18 03:15:40;;;;;;;7.22;3.88;;;;;;;;;;4985843;28;20237;-84
2022/03/18 03:18:07;;;;;;;11.95;3.80;;;;;;;;;;4982248;28;20204;-85
2022/03/18 03:20:33;;;;;;;3.60;3.20;;;;;;;;;;4975315;28;20207;-84
2022/03/18 03:22:59;;;;;;;8.77;4.10;;;;;;;;;;5001550;28;20188;-84
2022/03/18 03:25:25;;;;;;;6.90;3.95;;;;;;;;;;4984781;28;20186;-85
2022/03/18 03:27:52;;;;;;;4.30;3.80;;;;;;;;;;4985984;28;20270;-84
2022/03/18 03:30:18;;;;;;;7.05;4.50;;;;;;;;;;4998539;28;20259;-85
2022/03/18 03:32:44;;;;;;;5.47;4.10;;;;;;;;;;4974505;28;20179;-84
2022/03/18 03:35:10;;;;;;;3.90;3.50;;;;;;;;;;4984464;28;20191;-85
2022/03/18 03:37:37;;;;;;;5.80;4.53;;;;;;;;;;4986226;28;20168;-84
2022/03/18 03:40:03;;;;;;;4.50;3.35;;;;;;;;;;4980897;28;20219;-84
2022/03/18 03:42:30;;;;;;;5.70;3.40;;;;;;;;;;4984010;28;20614;-84
2022/03/18 03:44:56;;;;;;;8.32;5.15;;;;;;;;;;5001312;28;20207;-85
2022/03/18 03:47:22;;;;;;;4.68;4.15;;;;;;;;;;4985065;28;20183;-85
2022/03/18 03:49:48;;;;;;;6.63;3.72;;;;;;;;;;4986203;28;20215;-85
2022/03/18 03:52:14;;;;;;;6.97;4.13;;;;;;;;;;4987552;28;20176;-85
2022/03/18 03:54:40;;;;;;;3.67;2.75;;;;;;;;;;4980657;28;20212;-84
2022/03/18 03:57:06;;;;;;;4.68;3.78;;;;;;;;;;4978197;28;20217;-84
2022/03/18 03:59:33;;;;;;;4.25;3.85;;;;;;;;;;4986122;28;20274;-85
2022/03/18 04:01:59;;;;;;;4.65;3.50;;;;;;;;;;4985677;28;20227;-84
2022/03/18 04:04:26;;;;;;;4.63;3.78;;;;;;;;;;4985327;28;20172;-84
2022/03/18 04:06:52;;;;;;;6.97;4.20;;;;;;;;;;4985851;28;20247;-85
2022/03/18 04:09:18;;;;;;;5.50;4.05;;;;;;;;;;4985653;28;20208;-85
2022/03/18 04:11:44;;;;;;;5.45;3.38;;;;;;;;;;4984015;28;20249;-84
2022/03/18 04:14:10;;;;;;;6.03;3.10;;;;;;;;;;4985354;28;20190;-84
2022/03/18 04:16:36;;;;;;;6.47;3.70;;;;;;;;;;4984770;28;20204;-85
2022/03/18 04:19:03;;;;;;;5.40;3.65;;;;;;;;;;4984959;28;20195;-85
2022/03/18 04:21:29;;;;;;;7.07;3.92;;;;;;;;;;4998347;28;20219;-84
2022/03/18 04:23:55;;;;;;;4.45;3.60;;;;;;;;;;4984835;28;20254;-84
2022/03/18 04:26:21;;;;;;;6.05;3.42;;;;;;;;;;4983962;28;20609;-84
2022/03/18 04:28:47;;;;;;;5.50;3.08;;;;;;;;;;4999389;28;20187;-84
2022/03/18 04:31:13;;;;;;;3.47;3.17;;;;;;;;;;4984509;28;20251;-84
2022/03/18 04:33:39;;;;;;;6.10;3.50;;;;;;;;;;4980519;28;20189;-84
2022/03/18 04:36:05;;;;;;;5.90;4.55;;;;;;;;;;4977554;28;20238;-84
2022/03/18 04:38:31;;;;;;;5.75;4.80;;;;;;;;;;4984843;28;20188;-83
2022/03/18 04:40:57;;;;;;;3.85;3.05;;;;;;;;;;4999836;28;20188;-83
2022/03/18 04:43:24;;;;;;;4.95;3.50;;;;;;;;;;4986019;28;20238;-84
2022/03/18 04:45:50;;;;;;;6.05;3.40;;;;;;;;;;4973009;28;20191;-84
2022/03/18 04:48:16;;;;;;;6.53;3.90;;;;;;;;;;4979538;28;20704;-84
2022/03/18 04:50:42;;;;;;;5.55;3.67;;;;;;;;;;4983265;28;20211;-83
2022/03/18 04:53:08;;;;;;;5.13;3.22;;;;;;;;;;4968847;28;20184;-85
2022/03/18 04:55:34;;;;;;;4.68;4.15;;;;;;;;;;4985488;28;20172;-84
2022/03/18 04:58:00;;;;;;;4.78;4.10;;;;;;;;;;4985483;28;20236;-84
2022/03/18 05:00:26;;;;;;;3.70;3.30;;;;;;;;;;4979178;28;20223;-84
2022/03/18 05:02:52;;;;;;;5.85;3.40;;;;;;;;;;4975943;28;20218;-84
2022/03/18 05:05:19;;;;;;;5.65;3.53;;;;;;;;;;4984617;28;20180;-84
2022/03/18 05:07:47;;;;;;;14.50;5.03;;;;;;;;;;4999545;28;20176;-84
2022/03/18 05:10:13;;;;;;;5.22;4.20;;;;;;;;;;4983550;28;20223;-84
2022/03/18 05:12:39;;;;;;;4.50;4.10;;;;;;;;;;4974806;28;20200;-83
2022/03/18 05:15:06;;;;;;;7.72;4.68;;;;;;;;;;4976885;28;20207;-84
2022/03/18 05:17:31;;;;;;;4.88;4.07;;;;;;;;;;4982927;28;20222;-84
2022/03/18 05:19:57;;;;;;;5.43;3.50;;;;;;;;;;4985098;28;20191;-84
2022/03/18 05:22:23;;;;;;;7.45;3.85;;;;;;;;;;4984512;28;20241;-84
2022/03/18 05:24:49;;;;;;;6.68;5.32;;;;;;;;;;4984043;28;20239;-84
2022/03/18 05:27:15;;;;;;;5.65;5.05;;;;;;;;;;4983896;28;20187;-84
2022/03/18 05:29:41;;;;;;;4.72;4.15;;;;;;;;;;4999526;28;20578;-83
2022/03/18 05:32:08;;;;;;;5.15;4.50;;;;;;;;;;4984353;28;20230;-84
2022/03/18 05:34:34;;;;;;;4.68;3.42;;;;;;;;;;4996871;28;20188;-85
2022/03/18 05:37:00;;;;;;;10.15;5.03;;;;;;;;;;4984005;28;20184;-85
2022/03/18 05:39:26;;;;;;;6.22;5.47;;;;;;;;;;4979887;28;20188;-84
2022/03/18 05:41:52;;;;;;;6.60;4.20;;;;;;;;;;4989853;28;20323;-85
2022/03/18 05:44:18;;;;;;;12.25;4.45;;;;;;;;;;4983872;28;20188;-84
2022/03/18 05:46:44;;;;;;;6.22;3.90;;;;;;;;;;4983768;28;20175;-83
2022/03/18 05:49:10;;;;;;;4.65;4.13;;;;;;;;;;4983998;28;20218;-84
2022/03/18 05:51:37;;;;;;;7.10;4.60;;;;;;;;;;4978914;28;20238;-83
2022/03/18 05:54:03;;;;;;;6.25;3.90;;;;;;;;;;4988182;28;20184;-84
2022/03/18 05:59:15;;;;;;;4.82;4.05;;;;;;;;;;4970174;28;20190;-83
2022/03/18 06:01:42;;;;;;;13.23;6.53;;;;;;;;;;4996726;28;20223;-83
2022/03/18 06:04:10;;;;;;;8.73;5.63;;;;;;;;;;4983126;28;20178;-84
2022/03/18 06:06:37;;;;;;;12.98;7.65;;;;;;;;;;4983381;28;20750;-83
2022/03/18 06:11:48;;;;;;;12.13;6.85;;;;;;;;;;4985782;28;20230;-83
2022/03/18 06:14:15;;;;;;;10.05;7.53;;;;;;;;;;4986697;28;20273;-84
2022/03/18 06:16:41;;;;;;;9.48;6.07;;;;;;;;;;4987391;28;20172;-83
2022/03/18 06:19:07;;;;;;;9.23;7.00;;;;;;;;;;4988329;28;20180;-84
2022/03/18 06:21:33;;;;;;;9.45;7.88;;;;;;;;;;4987657;28;20247;-84
2022/03/18 06:23:59;;;;;;;9.38;7.88;;;;;;;;;;4986331;28;20191;-84
2022/03/18 06:26:25;;;;;;;14.07;7.93;;;;;;;;;;4985455;28;22421;-84
2022/03/18 06:28:51;;;;;;;7.50;6.80;;;;;;;;;;4985942;28;20172;-83
2022/03/18 06:31:17;;;;;;;10.98;8.23;;;;;;;;;;4987366;28;20195;-84
2022/03/18 06:33:46;;;;;;;9.50;7.35;;;;;;;;;;4985155;28;20227;-85
2022/03/18 06:36:12;;;;;;;12.88;7.70;;;;;;;;;;4986153;28;20727;-85
2022/03/18 06:38:38;;;;;;;18.80;14.35;;;;;;;;;;5000665;28;20641;-85
2022/03/18 06:41:04;;;;;;;21.02;17.88;;;;;;;;;;4987273;28;20179;-84
2022/03/18 06:43:30;;;;;;;29.90;20.70;;;;;;;;;;4983731;28;20180;-82
2022/03/18 06:45:56;;;;;;;11.57;9.70;;;;;;;;;;4983877;28;20658;-84
2022/03/18 06:48:22;;;;;;;10.85;8.70;;;;;;;;;;4986317;28;20251;-86
2022/03/18 06:50:49;;;;;;;11.90;7.70;;;;;;;;;;5002094;28;20218;-87
2022/03/18 06:53:15;;;;;;;8.40;5.00;;;;;;;;;;4980972;28;20195;-87
2022/03/18 06:55:41;;;;;;;12.40;7.43;;;;;;;;;;4987507;28;20191;-86
2022/03/18 06:58:07;;;;;;;7.28;6.55;;;;;;;;;;4986418;28;20194;-87
2022/03/18 07:00:33;;;;;;;11.70;8.05;;;;;;;;;;4978723;28;20184;-85
2022/03/18 07:02:59;;;;;;;10.52;6.85;;;;;;;;;;4993433;28;20207;-88
2022/03/18 07:05:27;;;;;;;7.63;5.57;;;;;;;;;;5001434;28;20219;-88
2022/03/18 07:07:53;;;;;;;7.22;5.78;;;;;;;;;;5001512;28;20199;-88
2022/03/18 07:10:19;;;;;;;8.68;5.05;;;;;;;;;;4987002;28;20224;-88
2022/03/18 07:12:45;;;;;;;7.13;4.40;;;;;;;;;;4998755;28;20232;-88
2022/03/18 07:15:11;;;;;;;4.93;4.20;;;;;;;;;;4978844;28;20188;-87
2022/03/18 07:17:55;;;;;;;13.48;4.80;;;;;;;;;;5000771;28;20187;-89
2022/03/18 07:20:24;;;;;;;7.75;4.55;;;;;;;;;;4985586;28;20199;-88
2022/03/18 07:23:00;;;;;;;5.22;4.63;;;;;;;;;;4984637;28;20247;-87
2022/03/18 07:25:26;;;;;;;8.98;5.60;;;;;;;;;;4986335;28;20657;-87
2022/03/18 07:27:52;;;;;;;8.27;5.65;;;;;;;;;;4982326;28;20195;-88
2022/03/18 07:30:18;;;;;;;8.65;5.50;;;;;;;;;;4990664;28;20208;-88
2022/03/18 07:32:44;;;;;;;7.78;6.45;;;;;;;;;;4991220;28;20203;-88
2022/03/18 07:35:10;;;;;;;9.32;6.07;;;;;;;;;;5001288;28;20187;-87
2022/03/18 07:37:36;;;;;;;5.68;5.07;;;;;;;;;;4999350;28;20235;-85
2022/03/18 07:40:03;;;;;;;8.70;5.57;;;;;;;;;;4985588;28;20194;-85
2022/03/18 07:42:40;;;;;;;6.90;6.30;;;;;;;;;;4981962;28;20200;-87
2022/03/18 07:45:06;;;;;;;7.45;5.68;;;;;;;;;;4981073;28;20184;-86
2022/03/18 07:47:32;;;;;;;15.80;6.20;;;;;;;;;;4987888;28;20215;-87
2022/03/18 07:49:58;;;;;;;11.48;7.10;;;;;;;;;;5001190;28;20251;-87
2022/03/18 07:52:25;;;;;;;9.00;6.47;;;;;;;;;;4985375;28;20208;-87
2022/03/18 07:54:51;;;;;;;8.73;6.28;;;;;;;;;;5001061;28;20184;-85
2022/03/18 07:57:17;;;;;;;8.02;6.70;;;;;;;;;;4979543;28;20620;-86
2022/03/18 07:59:43;;;;;;;11.30;6.87;;;;;;;;;;4993175;28;20202;-86
2022/03/18 08:02:09;;;;;;;12.25;7.22;;;;;;;;;;4985510;28;20439;-84
2022/03/18 08:04:35;;;;;;;10.90;7.07;;;;;;;;;;4998635;28;20181;-86
2022/03/18 08:07:02;;;;;;;12.40;8.43;;;;;;;;;;4984768;28;20219;-84
2022/03/18 08:09:29;;;;;;;10.98;6.93;;;;;;;;;;4985632;28;20263;-86
2022/03/18 08:11:55;;;;;;;13.85;8.60;;;;;;;;;;4983684;28;20330;-83
2022/03/18 08:14:21;;;;;;;9.40;7.38;;;;;;;;;;4983937;28;20211;-84
2022/03/18 08:16:47;;;;;;;15.82;8.43;;;;;;;;;;4998350;28;20180;-82
2022/03/18 08:19:13;;;;;;;12.20;7.05;;;;;;;;;;4983740;28;20180;-87
2022/03/18 08:21:39;;;;;;;8.52;5.70;;;;;;;;;;4974156;28;20199;-82
2022/03/18 08:24:06;;;;;;;9.93;6.32;;;;;;;;;;4983418;28;20211;-85
2022/03/18 08:26:36;;;;;;;10.38;5.97;;;;;;;;;;4983227;28;20270;-81
2022/03/18 08:29:03;;;;;;;8.93;6.32;;;;;;;;;;4981399;28;20235;-85
2022/03/18 08:31:30;;;;;;;10.30;6.15;;;;;;;;;;4983658;28;20264;-80
2022/03/18 08:33:56;;;;;;;9.88;5.97;;;;;;;;;;4982863;28;20185;-79
2022/03/18 08:36:22;;;;;;;10.35;6.25;;;;;;;;;;4980419;28;20255;-90
2022/03/18 08:38:48;;;;;;;6.35;5.72;;;;;;;;;;4983233;28;20194;-82
2022/03/18 08:41:14;;;;;;;4.97;4.03;;;;;;;;;;4984130;28;20183;-86
2022/03/18 08:43:40;;;;;;;10.98;6.65;;;;;;;;;;4998507;28;20181;-84
2022/03/18 08:46:06;;;;;;;5.13;4.18;;;;;;;;;;4984454;28;20175;-83
2022/03/18 08:48:32;;;;;;;9.75;5.95;;;;;;;;;;4984761;28;20244;-84
2022/03/18 08:50:58;;;;;;;9.73;5.85;;;;;;;;;;4983578;28;20302;-81
2022/03/18 08:53:24;;;;;;;7.40;5.73;;;;;;;;;;4984039;28;20526;-81
2022/03/18 08:55:50;;;;;;;8.57;5.40;;;;;;;;;;4985280;28;20419;-85
2022/03/18 08:58:16;;;;;;;6.85;5.38;;;;;;;;;;4985843;28;20423;-81
2022/03/18 09:00:42;;;;;;;7.38;5.22;;;;;;;;;;4982612;28;20280;-80
2022/03/18 09:03:09;;;;;;;7.07;5.30;;;;;;;;;;4974510;28;20188;-82
2022/03/18 09:05:35;;;;;;;7.55;5.05;;;;;;;;;;4998723;28;20195;-81
2022/03/18 09:08:01;;;;;;;7.18;5.60;;;;;;;;;;4983745;28;20192;-82
2022/03/18 09:10:27;;;;;;;11.73;6.50;;;;;;;;;;4984713;28;20293;-85
2022/03/18 09:12:59;;;;;;;6.47;4.63;;;;;;;;;;4975464;28;20219;-81
2022/03/18 09:15:25;;;;;;;6.40;5.03;;;;;;;;;;4977109;28;20176;-81
2022/03/18 09:17:51;;;;;;;5.75;4.53;;;;;;;;;;4982659;28;20188;-82
2022/03/18 09:20:18;;;;;;;15.35;4.20;;;;;;;;;;4999199;28;20195;-81
2022/03/18 09:22:44;;;;;;;7.65;5.28;;;;;;;;;;4997960;28;20172;-82
2022/03/18 09:25:10;;;;;;;11.13;5.32;;;;;;;;;;4971833;28;20204;-83
2022/03/18 09:27:36;;;;;;;4.75;3.92;;;;;;;;;;4980230;28;20633;-80
2022/03/18 09:30:03;;;;;;;5.05;3.90;;;;;;;;;;4982099;28;20277;-82
2022/03/18 09:32:29;;;;;;;8.25;4.25;;;;;;;;;;4980687;28;20202;-85
2022/03/18 09:34:56;;;;;;;7.32;4.63;;;;;;;;;;4983061;28;20199;-85
2022/03/18 09:37:22;;;;;;;7.32;4.63;;;;;;;;;;4984299;28;20203;-88
2022/03/18 09:39:48;;;;;;;5.00;4.00;;;;;;;;;;4979606;28;20197;-85
2022/03/18 09:42:14;;;;;;;4.28;3.33;;;;;;;;;;4988078;28;20192;-84
2022/03/18 09:44:40;;;;;;;4.22;3.20;;;;;;;;;;4988497;28;20600;-87
2022/03/18 09:47:07;;;;;;;7.75;4.13;;;;;;;;;;4983164;28;20262;-83
2022/03/18 09:49:34;;;;;;;5.18;3.60;;;;;;;;;;4997123;28;20255;-85
2022/03/18 09:52:01;;;;;;;4.20;3.20;;;;;;;;;;4984350;28;20657;-84
2022/03/18 09:54:31;;;;;;;4.68;2.67;;;;;;;;;;4979876;28;20191;-83
2022/03/18 09:56:57;;;;;;;4.65;3.10;;;;;;;;;;4975003;28;20187;-87
2022/03/18 09:59:24;;;;;;;5.20;3.85;;;;;;;;;;4984769;28;20191;-82
2022/03/18 10:01:51;;;;;;;6.38;3.15;;;;;;;;;;4984639;28;20184;-89
2022/03/18 10:04:17;;;;;;;6.50;3.97;;;;;;;;;;4981642;28;20271;-86
2022/03/18 10:06:43;;;;;;;4.55;3.67;;;;;;;;;;4982088;28;20191;-84
2022/03/18 10:09:10;;;;;;;5.45;3.28;;;;;;;;;;4984886;28;20260;-85
2022/03/18 10:11:37;;;;;;;4.30;3.35;;;;;;;;;;4981943;28;20398;-85
2022/03/18 10:14:07;;;;;;;3.38;2.67;;;;;;;;;;4999411;28;20192;-84
2022/03/18 10:16:46;;;;;;;4.28;3.63;;;;;;;;;;4976137;28;20211;-84
2022/03/18 10:19:14;;;;;;;14.77;4.35;;;;;;;;;;4987455;28;20188;-84
2022/03/18 10:21:56;;;;;;;3.35;3.05;;;;;;;;;;4988518;28;20192;-85
2022/03/18 10:24:23;;;;;;;4.00;3.40;;;;;;;;;;4979543;28;20235;-83
2022/03/18 10:26:52;;;;;;;5.50;3.20;;;;;;;;;;4983586;28;20191;-84
2022/03/18 10:29:18;;;;;;;6.10;2.90;;;;;;;;;;4983436;28;20204;-88
2022/03/18 10:31:59;;;;;;;7.18;4.45;;;;;;;;;;4997349;28;20267;-83
2022/03/18 10:37:21;;;;;;;4.85;3.40;;;;;;;;;;4984802;28;20199;-87
2022/03/18 10:39:48;;;;;;;3.65;3.03;;;;;;;;;;4979581;28;20192;-87
2022/03/18 10:42:21;;;;;;;6.07;3.70;;;;;;;;;;4987370;28;20252;-86
2022/03/18 10:44:48;;;;;;;4.97;3.00;;;;;;;;;;4988480;28;20761;-86
2022/03/18 10:47:34;;;;;;;3.20;2.90;;;;;;;;;;4995773;28;20211;-86
2022/03/18 10:50:13;;;;;;;8.80;3.55;;;;;;;;;;4999718;28;20294;-84
2022/03/18 10:52:47;;;;;;;3.53;3.13;;;;;;;;;;4979429;28;20262;-84
2022/03/18 10:55:18;;;;;;;3.28;2.60;;;;;;;;;;4982238;28;20314;-85
2022/03/18 10:57:51;;;;;;;3.70;2.45;;;;;;;;;;4980594;28;20188;-88
2022/03/18 11:00:17;;;;;;;5.65;2.78;;;;;;;;;;4981251;28;20208;-85
2022/03/18 11:02:44;;;;;;;4.88;2.65;;;;;;;;;;4986697;28;20191;-85
2022/03/18 11:05:13;;;;;;;5.72;3.20;;;;;;;;;;4986723;28;20184;-80
2022/03/18 11:07:41;;;;;;;3.83;2.83;;;;;;;;;;4986433;28;20176;-82
2022/03/18 11:12:56;;;;;;;3.47;3.17;;;;;;;;;;4986273;28;20202;-84
2022/03/18 11:15:26;;;;;;;3.40;2.38;;;;;;;;;;4985779;28;20175;-85
2022/03/18 11:17:55;;;;;;;4.90;3.03;;;;;;;;;;4985605;28;20549;-87
2022/03/18 11:20:23;;;;;;;3.47;2.60;;;;;;;;;;4985842;28;20243;-81
2022/03/18 11:22:49;;;;;;;3.92;3.47;;;;;;;;;;4984073;28;20188;-82
2022/03/18 11:25:15;;;;;;;6.30;2.80;;;;;;;;;;4986012;28;20243;-84
2022/03/18 11:27:44;;;;;;;4.97;3.67;;;;;;;;;;4984597;28;20180;-84
2022/03/18 11:30:22;;;;;;;4.90;3.65;;;;;;;;;;4984846;28;20227;-81
2022/03/18 11:33:07;;;;;;;5.63;3.83;;;;;;;;;;5001171;28;20203;-87
2022/03/18 11:35:55;;;;;;;6.80;3.65;;;;;;;;;;4986090;28;20180;-85
2022/03/18 11:38:23;;;;;;;6.03;4.13;;;;;;;;;;4999761;28;20189;-85
2022/03/18 11:41:00;;;;;;;5.90;3.40;;;;;;;;;;5001351;28;20202;-83
2022/03/18 11:43:33;;;;;;;4.15;3.70;;;;;;;;;;4985414;28;20204;-87
2022/03/18 11:46:11;;;;;;;5.30;3.17;;;;;;;;;;4984233;28;20243;-84
2022/03/18 11:48:38;;;;;;;6.43;4.70;;;;;;;;;;4985675;28;20213;-85
2022/03/18 11:51:23;;;;;;;3.72;3.30;;;;;;;;;;4981108;28;20206;-85
2022/03/18 11:53:51;;;;;;;3.58;3.15;;;;;;;;;;4993512;28;20394;-87
2022/03/18 11:56:19;;;;;;;7.05;3.88;;;;;;;;;;5000356;28;20527;-84
2022/03/18 11:58:45;;;;;;;5.10;3.47;;;;;;;;;;4998757;28;20518;-90
2022/03/18 12:01:30;;;;;;;3.88;3.47;;;;;;;;;;4985495;28;20184;-86
2022/03/18 12:03:57;;;;;;;6.75;3.30;;;;;;;;;;4984477;28;20180;-84
2022/03/18 12:06:23;;;;;;;7.30;3.50;;;;;;;;;;4982313;28;20190;-85
2022/03/18 12:08:52;;;;;;;4.77;3.87;;;;;;;;;;4984438;28;20987;-85
2022/03/18 12:11:25;;;;;;;4.03;3.60;;;;;;;;;;4984651;28;20805;-90
2022/03/18 12:13:51;;;;;;;7.00;3.40;;;;;;;;;;4968820;28;20422;-81
2022/03/18 12:16:21;;;;;;;4.90;3.73;;;;;;;;;;4983806;28;20753;-84
2022/03/18 12:18:47;;;;;;;4.20;3.80;;;;;;;;;;4975170;28;20503;-83
2022/03/18 12:21:14;;;;;;;4.40;4.00;;;;;;;;;;4989348;28;20474;-83
2022/03/18 12:23:40;;;;;;;4.27;3.87;;;;;;;;;;4988700;28;20434;-84
2022/03/18 12:26:07;;;;;;;4.50;3.87;;;;;;;;;;4999138;28;20437;-86
2022/03/18 12:28:49;;;;;;;6.33;4.10;;;;;;;;;;4984425;28;20473;-87
2022/03/18 12:31:16;;;;;;;3.70;3.40;;;;;;;;;;4986348;28;20691;-82
2022/03/18 12:33:42;;;;;;;6.80;4.17;;;;;;;;;;4984321;28;20438;-89
2022/03/18 12:36:08;;;;;;;4.83;3.93;;;;;;;;;;4979862;28;20485;-85
2022/03/18 12:38:35;;;;;;;4.73;4.33;;;;;;;;;;4973869;28;20435;-88
2022/03/18 12:41:01;;;;;;;5.10;3.80;;;;;;;;;;5000405;28;20454;-87
2022/03/18 12:43:31;;;;;;;4.50;3.30;;;;;;;;;;4984928;28;20441;-88
2022/03/18 12:45:57;;;;;;;5.10;4.60;;;;;;;;;;4982464;28;21150;-85
2022/03/18 12:48:23;;;;;;;4.37;3.60;;;;;;;;;;4995320;28;20436;-86
2022/03/18 12:50:50;;;;;;;5.50;4.50;;;;;;;;;;4981685;28;20468;-84
2022/03/18 12:53:23;;;;;;;3.87;3.57;;;;;;;;;;4975558;28;20442;-91
2022/03/18 12:55:53;;;;;;;4.63;4.23;;;;;;;;;;4999785;28;20454;-89
2022/03/18 12:58:20;;;;;;;4.90;4.50;;;;;;;;;;4982943;28;20455;-91
2022/03/18 13:00:55;;;;;;;4.17;3.77;;;;;;;;;;4997271;28;20457;-86
2022/03/18 13:03:23;;;;;;;5.13;4.63;;;;;;;;;;5000346;28;20439;-87
2022/03/18 13:05:50;;;;;;;4.60;3.83;;;;;;;;;;4982950;28;20486;-86
2022/03/18 13:08:20;;;;;;;5.60;3.60;;;;;;;;;;4983715;28;20443;-88
2022/03/18 13:10:56;;;;;;;5.17;3.90;;;;;;;;;;4982504;28;20483;-79
2022/03/18 13:13:22;;;;;;;5.30;4.70;;;;;;;;;;4983630;28;20419;-81
2022/03/18 13:16:00;;;;;;;4.87;4.43;;;;;;;;;;4981170;28;20458;-83
2022/03/18 13:18:26;;;;;;;5.73;3.70;;;;;;;;;;4999047;28;20462;-85
2022/03/18 13:20:57;;;;;;;5.50;4.50;;;;;;;;;;4998159;28;20435;-89
2022/03/18 13:23:23;;;;;;;5.27;3.60;;;;;;;;;;4999883;28;20436;-86
2022/03/18 13:25:49;;;;;;;3.60;3.33;;;;;;;;;;4998185;28;20422;-86
2022/03/18 13:28:16;;;;;;;4.07;3.77;;;;;;;;;;4983730;28;20437;-87
2022/03/18 13:33:49;;;;;;;3.60;3.30;;;;;;;;;;4979732;28;20449;-84
2022/03/18 13:36:22;;;;;;;3.90;3.60;;;;;;;;;;4997258;28;20727;-89
2022/03/18 13:38:48;;;;;;;3.83;3.50;;;;;;;;;;4984033;28;20443;-85
2022/03/18 13:41:14;;;;;;;4.20;3.90;;;;;;;;;;4975148;28;20442;-81
2022/03/18 13:43:41;;;;;;;3.93;3.63;;;;;;;;;;4997047;28;20429;-85
2022/03/18 13:46:10;;;;;;;3.40;3.10;;;;;;;;;;4982988;28;20466;-83
2022/03/18 13:48:36;;;;;;;4.83;3.53;;;;;;;;;;4983542;28;20498;-85
2022/03/18 13:51:06;;;;;;;3.80;3.37;;;;;;;;;;4983147;28;20474;-85
2022/03/18 13:53:32;;;;;;;3.43;2.97;;;;;;;;;;4984891;28;20475;-81
2022/03/18 13:55:59;;;;;;;4.53;4.13;;;;;;;;;;4998552;28;20458;-83
2022/03/18 13:58:30;;;;;;;3.90;3.57;;;;;;;;;;4982631;28;20431;-87
2022/03/18 14:01:07;;;;;;;3.03;2.83;;;;;;;;;;4979586;28;20451;-85
2022/03/18 14:03:34;;;;;;;3.97;3.57;;;;;;;;;;4983339;28;20443;-83
2022/03/18 14:06:00;;;;;;;3.30;3.10;;;;;;;;;;4983898;28;20439;-83
2022/03/18 14:08:39;;;;;;;4.07;3.43;;;;;;;;;;4981912;28;20785;-85
2022/03/18 14:14:22;;;;;;;2.77;2.57;;;;;;;;;;4983885;28;20478;-85
2022/03/18 14:17:07;;;;;;;4.97;2.90;;;;;;;;;;4996877;28;20445;-85
2022/03/18 14:19:47;;;;;;;3.13;2.83;;;;;;;;;;4981277;28;20460;-85
2022/03/18 14:22:30;;;;;;;5.43;3.10;;;;;;;;;;4980191;28;20428;-84
2022/03/18 14:24:56;;;;;;;3.43;3.13;;;;;;;;;;4992809;28;20490;-83
2022/03/18 14:27:23;;;;;;;2.90;2.70;;;;;;;;;;4978970;28;20480;-84
2022/03/18 14:29:49;;;;;;;3.63;3.33;;;;;;;;;;4993189;28;20463;-85
2022/03/18 14:32:15;;;;;;;4.30;3.40;;;;;;;;;;4981958;28;20441;-88
2022/03/18 14:34:42;;;;;;;2.90;2.70;;;;;;;;;;4987243;28;20508;-86
2022/03/18 14:37:08;;;;;;;3.77;2.63;;;;;;;;;;4986393;28;20399;-84
2022/03/18 14:39:34;;;;;;;5.23;3.53;;;;;;;;;;4985299;28;20477;-81
2022/03/18 14:42:00;;;;;;;6.50;2.90;;;;;;;;;;4987053;28;20425;-83
2022/03/18 14:44:26;;;;;;;3.00;2.70;;;;;;;;;;4983924;28;20401;-82
2022/03/18 14:46:52;;;;;;;3.60;3.30;;;;;;;;;;4985426;28;20434;-83
2022/03/18 14:49:19;;;;;;;3.70;3.08;;;;;;;;;;4986777;28;20492;-85
2022/03/18 14:51:45;;;;;;;4.38;3.20;;;;;;;;;;4987149;28;20188;-81
2022/03/18 14:54:14;;;;;;;6.55;3.80;;;;;;;;;;4994679;28;20240;-86
2022/03/18 14:56:40;;;;;;;5.30;4.40;;;;;;;;;;4986593;28;20179;-88
2022/03/18 14:59:06;;;;;;;6.90;3.90;;;;;;;;;;5001408;28;20215;-84
2022/03/18 15:01:32;;;;;;;3.67;3.20;;;;;;;;;;4986374;28;20207;-84
2022/03/18 15:04:05;;;;;;;5.30;3.63;;;;;;;;;;4982906;28;20176;-85
2022/03/18 15:06:31;;;;;;;4.53;3.67;;;;;;;;;;4985504;28;20179;-86
2022/03/18 15:08:57;;;;;;;4.10;3.60;;;;;;;;;;4986270;28;20262;-85